sensor_id;sensor_type;location;lat;lon;timestamp;P1;durP1;ratioP1;P2;durP2;ratioP2
70780;SDS011;59514;48.810;2.134;2022-07-11T00:01:46;1.70;;;0.80;;
70780;SDS011;59514;48.810;2.134;2022-07-11T00:04:11;1.55;;;0.80;;
70780;SDS011;59514;48.810;2.134;2022-07-11T00:06:37;1.35;;;0.70;;
70780;SDS011;59514;48.810;2.134;2022-07-11T00:09:02;1.65;;;0.70;;
70780;SDS011;59514;48.810;2.134;2022-07-11T00:11:27;2.50;;;1.20;;
70780;SDS011;59514;48.810;2.134;2022-07-11T00:13:53;2.28;;;0.73;;
70780;SDS011;59514;48.810;2.134;2022-07-11T00:16:18;1.60;;;0.63;;
70780;SDS011;59514;48.810;2.134;2022-07-11T00:18:43;1.27;;;0.80;;
70780;SDS011;59514;48.810;2.134;2022-07-11T00:21:10;1.83;;;0.88;;
70780;SDS011;59514;48.810;2.134;2022-07-11T00:23:35;2.00;;;0.90;;
70780;SDS011;59514;48.810;2.134;2022-07-11T00:26:01;3.58;;;0.88;;
70780;SDS011;59514;48.810;2.134;2022-07-11T00:28:27;2.35;;;0.80;;
70780;SDS011;59514;48.810;2.134;2022-07-11T00:30:52;1.02;;;0.77;;
70780;SDS011;59514;48.810;2.134;2022-07-11T00:33:18;1.10;;;0.73;;
70780;SDS011;59514;48.810;2.134;2022-07-11T00:35:43;1.02;;;0.70;;
70780;SDS011;59514;48.810;2.134;2022-07-11T00:38:09;1.30;;;0.85;;
70780;SDS011;59514;48.810;2.134;2022-07-11T00:40:34;1.75;;;0.80;;
70780;SDS011;59514;48.810;2.134;2022-07-11T00:43:02;1.50;;;0.77;;
70780;SDS011;59514;48.810;2.134;2022-07-11T00:45:28;2.70;;;0.90;;
70780;SDS011;59514;48.810;2.134;2022-07-11T00:47:53;3.05;;;0.70;;
70780;SDS011;59514;48.810;2.134;2022-07-11T00:50:20;3.08;;;0.90;;
70780;SDS011;59514;48.810;2.134;2022-07-11T00:52:46;2.42;;;0.80;;
70780;SDS011;59514;48.810;2.134;2022-07-11T00:55:12;2.00;;;0.60;;
70780;SDS011;59514;48.810;2.134;2022-07-11T00:57:38;3.08;;;0.95;;
70780;SDS011;59514;48.810;2.134;2022-07-11T01:00:04;1.25;;;0.88;;
70780;SDS011;59514;48.810;2.134;2022-07-11T01:02:30;2.17;;;0.90;;
70780;SDS011;59514;48.810;2.134;2022-07-11T01:04:56;1.23;;;0.65;;
70780;SDS011;59514;48.810;2.134;2022-07-11T01:07:21;0.90;;;0.70;;
70780;SDS011;59514;48.810;2.134;2022-07-11T01:09:47;1.08;;;0.68;;
70780;SDS011;59514;48.810;2.134;2022-07-11T01:12:12;0.73;;;0.55;;
70780;SDS011;59514;48.810;2.134;2022-07-11T01:14:38;1.95;;;0.80;;
70780;SDS011;59514;48.810;2.134;2022-07-11T01:17:03;0.98;;;0.70;;
70780;SDS011;59514;48.810;2.134;2022-07-11T01:19:29;1.10;;;0.63;;
70780;SDS011;59514;48.810;2.134;2022-07-11T01:21:55;1.27;;;0.70;;
70780;SDS011;59514;48.810;2.134;2022-07-11T01:24:23;1.40;;;0.70;;
70780;SDS011;59514;48.810;2.134;2022-07-11T01:26:50;1.23;;;0.70;;
70780;SDS011;59514;48.810;2.134;2022-07-11T01:29:16;1.30;;;0.70;;
70780;SDS011;59514;48.810;2.134;2022-07-11T01:31:42;2.25;;;0.65;;
70780;SDS011;59514;48.810;2.134;2022-07-11T01:34:09;1.35;;;0.70;;
70780;SDS011;59514;48.810;2.134;2022-07-11T01:36:34;1.13;;;0.68;;
70780;SDS011;59514;48.810;2.134;2022-07-11T01:39:00;2.00;;;0.75;;
70780;SDS011;59514;48.810;2.134;2022-07-11T01:41:25;1.25;;;0.70;;
70780;SDS011;59514;48.810;2.134;2022-07-11T01:43:51;1.10;;;0.70;;
70780;SDS011;59514;48.810;2.134;2022-07-11T01:46:18;2.42;;;0.80;;
70780;SDS011;59514;48.810;2.134;2022-07-11T01:48:44;2.03;;;0.60;;
70780;SDS011;59514;48.810;2.134;2022-07-11T01:51:10;1.55;;;0.70;;
70780;SDS011;59514;48.810;2.134;2022-07-11T01:53:36;0.70;;;0.60;;
70780;SDS011;59514;48.810;2.134;2022-07-11T01:56:02;1.27;;;0.70;;
70780;SDS011;59514;48.810;2.134;2022-07-11T01:58:27;1.10;;;0.70;;
70780;SDS011;59514;48.810;2.134;2022-07-11T02:00:55;1.75;;;0.70;;
70780;SDS011;59514;48.810;2.134;2022-07-11T02:03:21;1.55;;;0.60;;
70780;SDS011;59514;48.810;2.134;2022-07-11T02:05:46;1.08;;;0.55;;
70780;SDS011;59514;48.810;2.134;2022-07-11T02:08:12;1.67;;;0.50;;
70780;SDS011;59514;48.810;2.134;2022-07-11T02:10:42;1.92;;;0.68;;
70780;SDS011;59514;48.810;2.134;2022-07-11T02:13:10;1.10;;;0.60;;
70780;SDS011;59514;48.810;2.134;2022-07-11T02:15:37;1.50;;;0.68;;
70780;SDS011;59514;48.810;2.134;2022-07-11T02:18:03;1.70;;;0.57;;
70780;SDS011;59514;48.810;2.134;2022-07-11T02:20:28;2.50;;;0.50;;
70780;SDS011;59514;48.810;2.134;2022-07-11T02:22:54;0.90;;;0.60;;
70780;SDS011;59514;48.810;2.134;2022-07-11T02:25:21;0.80;;;0.65;;
70780;SDS011;59514;48.810;2.134;2022-07-11T02:27:47;2.45;;;1.05;;
70780;SDS011;59514;48.810;2.134;2022-07-11T02:30:13;3.30;;;0.82;;
70780;SDS011;59514;48.810;2.134;2022-07-11T02:32:38;2.33;;;0.90;;
70780;SDS011;59514;48.810;2.134;2022-07-11T02:35:04;1.33;;;0.80;;
70780;SDS011;59514;48.810;2.134;2022-07-11T02:37:30;1.80;;;0.60;;
70780;SDS011;59514;48.810;2.134;2022-07-11T02:39:55;2.25;;;1.10;;
70780;SDS011;59514;48.810;2.134;2022-07-11T02:42:20;2.40;;;0.90;;
70780;SDS011;59514;48.810;2.134;2022-07-11T02:44:46;1.40;;;0.63;;
70780;SDS011;59514;48.810;2.134;2022-07-11T02:47:11;1.58;;;0.70;;
70780;SDS011;59514;48.810;2.134;2022-07-11T02:49:36;1.02;;;0.70;;
70780;SDS011;59514;48.810;2.134;2022-07-11T02:52:03;0.80;;;0.60;;
70780;SDS011;59514;48.810;2.134;2022-07-11T02:54:28;1.70;;;0.60;;
70780;SDS011;59514;48.810;2.134;2022-07-11T02:56:54;1.40;;;0.85;;
70780;SDS011;59514;48.810;2.134;2022-07-11T02:59:19;1.13;;;0.52;;
70780;SDS011;59514;48.810;2.134;2022-07-11T03:01:46;1.52;;;0.70;;
70780;SDS011;59514;48.810;2.134;2022-07-11T03:04:11;1.33;;;0.73;;
70780;SDS011;59514;48.810;2.134;2022-07-11T03:06:37;0.95;;;0.70;;
70780;SDS011;59514;48.810;2.134;2022-07-11T03:09:06;1.63;;;0.70;;
70780;SDS011;59514;48.810;2.134;2022-07-11T03:11:32;1.98;;;1.10;;
70780;SDS011;59514;48.810;2.134;2022-07-11T03:13:58;1.35;;;0.70;;
70780;SDS011;59514;48.810;2.134;2022-07-11T03:16:25;1.33;;;0.80;;
70780;SDS011;59514;48.810;2.134;2022-07-11T03:18:51;2.40;;;0.80;;
70780;SDS011;59514;48.810;2.134;2022-07-11T03:21:16;1.05;;;0.73;;
70780;SDS011;59514;48.810;2.134;2022-07-11T03:23:41;1.33;;;0.77;;
70780;SDS011;59514;48.810;2.134;2022-07-11T03:26:06;2.47;;;0.90;;
70780;SDS011;59514;48.810;2.134;2022-07-11T03:28:32;2.67;;;0.80;;
70780;SDS011;59514;48.810;2.134;2022-07-11T03:30:57;1.30;;;0.93;;
70780;SDS011;59514;48.810;2.134;2022-07-11T03:33:22;2.05;;;0.80;;
70780;SDS011;59514;48.810;2.134;2022-07-11T03:35:48;1.90;;;0.90;;
70780;SDS011;59514;48.810;2.134;2022-07-11T03:38:17;0.82;;;0.73;;
70780;SDS011;59514;48.810;2.134;2022-07-11T03:40:44;1.45;;;0.90;;
70780;SDS011;59514;48.810;2.134;2022-07-11T03:43:09;2.17;;;0.85;;
70780;SDS011;59514;48.810;2.134;2022-07-11T03:45:34;1.98;;;0.73;;
70780;SDS011;59514;48.810;2.134;2022-07-11T03:48:00;3.10;;;0.88;;
70780;SDS011;59514;48.810;2.134;2022-07-11T03:50:25;0.98;;;0.60;;
70780;SDS011;59514;48.810;2.134;2022-07-11T03:52:51;1.50;;;0.95;;
70780;SDS011;59514;48.810;2.134;2022-07-11T03:55:17;0.70;;;0.70;;
70780;SDS011;59514;48.810;2.134;2022-07-11T03:57:42;1.60;;;0.80;;
70780;SDS011;59514;48.810;2.134;2022-07-11T04:00:08;2.10;;;0.93;;
70780;SDS011;59514;48.810;2.134;2022-07-11T04:02:35;0.73;;;0.60;;
70780;SDS011;59514;48.810;2.134;2022-07-11T04:05:00;1.55;;;1.00;;
70780;SDS011;59514;48.810;2.134;2022-07-11T04:07:26;1.80;;;0.70;;
70780;SDS011;59514;48.810;2.134;2022-07-11T04:09:55;1.02;;;0.80;;
70780;SDS011;59514;48.810;2.134;2022-07-11T04:12:21;1.40;;;0.77;;
70780;SDS011;59514;48.810;2.134;2022-07-11T04:14:46;1.83;;;1.05;;
70780;SDS011;59514;48.810;2.134;2022-07-11T04:17:12;1.88;;;1.00;;
70780;SDS011;59514;48.810;2.134;2022-07-11T04:19:38;1.52;;;1.00;;
70780;SDS011;59514;48.810;2.134;2022-07-11T04:22:04;2.25;;;0.93;;
70780;SDS011;59514;48.810;2.134;2022-07-11T04:24:30;1.33;;;0.90;;
70780;SDS011;59514;48.810;2.134;2022-07-11T04:26:55;1.55;;;0.90;;
70780;SDS011;59514;48.810;2.134;2022-07-11T04:29:21;2.20;;;0.90;;
70780;SDS011;59514;48.810;2.134;2022-07-11T04:31:47;1.13;;;0.82;;
70780;SDS011;59514;48.810;2.134;2022-07-11T04:34:13;1.27;;;1.00;;
70780;SDS011;59514;48.810;2.134;2022-07-11T04:36:39;1.02;;;0.85;;
70780;SDS011;59514;48.810;2.134;2022-07-11T04:39:04;2.28;;;1.02;;
70780;SDS011;59514;48.810;2.134;2022-07-11T04:41:29;1.38;;;0.77;;
70780;SDS011;59514;48.810;2.134;2022-07-11T04:43:55;2.17;;;1.10;;
70780;SDS011;59514;48.810;2.134;2022-07-11T04:46:20;2.72;;;1.10;;
70780;SDS011;59514;48.810;2.134;2022-07-11T04:48:45;1.83;;;1.17;;
70780;SDS011;59514;48.810;2.134;2022-07-11T04:51:11;1.13;;;0.80;;
70780;SDS011;59514;48.810;2.134;2022-07-11T04:53:36;1.80;;;1.15;;
70780;SDS011;59514;48.810;2.134;2022-07-11T04:56:02;1.27;;;0.82;;
70780;SDS011;59514;48.810;2.134;2022-07-11T04:58:27;2.35;;;0.90;;
70780;SDS011;59514;48.810;2.134;2022-07-11T05:00:57;3.38;;;1.20;;
70780;SDS011;59514;48.810;2.134;2022-07-11T05:03:22;3.63;;;0.90;;
70780;SDS011;59514;48.810;2.134;2022-07-11T05:05:47;1.80;;;0.82;;
70780;SDS011;59514;48.810;2.134;2022-07-11T05:08:13;2.10;;;1.05;;
70780;SDS011;59514;48.810;2.134;2022-07-11T05:10:38;2.85;;;1.40;;
70780;SDS011;59514;48.810;2.134;2022-07-11T05:13:03;3.20;;;1.17;;
70780;SDS011;59514;48.810;2.134;2022-07-11T05:15:30;2.63;;;1.00;;
70780;SDS011;59514;48.810;2.134;2022-07-11T05:17:55;2.53;;;1.25;;
70780;SDS011;59514;48.810;2.134;2022-07-11T05:20:21;2.80;;;1.25;;
70780;SDS011;59514;48.810;2.134;2022-07-11T05:22:46;4.35;;;1.55;;
70780;SDS011;59514;48.810;2.134;2022-07-11T05:25:11;3.70;;;1.80;;
70780;SDS011;59514;48.810;2.134;2022-07-11T05:27:37;3.35;;;1.27;;
70780;SDS011;59514;48.810;2.134;2022-07-11T05:30:02;1.15;;;0.98;;
70780;SDS011;59514;48.810;2.134;2022-07-11T05:32:28;2.47;;;1.38;;
70780;SDS011;59514;48.810;2.134;2022-07-11T05:34:54;1.77;;;1.05;;
70780;SDS011;59514;48.810;2.134;2022-07-11T05:37:22;1.83;;;1.20;;
70780;SDS011;59514;48.810;2.134;2022-07-11T05:39:47;1.73;;;1.52;;
70780;SDS011;59514;48.810;2.134;2022-07-11T05:42:13;2.25;;;1.35;;
70780;SDS011;59514;48.810;2.134;2022-07-11T05:44:39;3.85;;;1.45;;
70780;SDS011;59514;48.810;2.134;2022-07-11T05:47:04;1.92;;;1.08;;
70780;SDS011;59514;48.810;2.134;2022-07-11T05:49:30;6.13;;;1.48;;
70780;SDS011;59514;48.810;2.134;2022-07-11T05:51:56;1.52;;;1.42;;
70780;SDS011;59514;48.810;2.134;2022-07-11T05:54:21;2.45;;;1.60;;
70780;SDS011;59514;48.810;2.134;2022-07-11T05:56:47;3.50;;;1.83;;
70780;SDS011;59514;48.810;2.134;2022-07-11T05:59:12;3.38;;;1.60;;
70780;SDS011;59514;48.810;2.134;2022-07-11T06:01:39;2.42;;;1.60;;
70780;SDS011;59514;48.810;2.134;2022-07-11T06:04:04;2.13;;;1.90;;
70780;SDS011;59514;48.810;2.134;2022-07-11T06:06:29;2.40;;;1.80;;
70780;SDS011;59514;48.810;2.134;2022-07-11T06:08:55;2.50;;;1.30;;
70780;SDS011;59514;48.810;2.134;2022-07-11T06:11:20;4.55;;;1.50;;
70780;SDS011;59514;48.810;2.134;2022-07-11T06:13:46;1.60;;;1.20;;
70780;SDS011;59514;48.810;2.134;2022-07-11T06:16:12;2.97;;;1.58;;
70780;SDS011;59514;48.810;2.134;2022-07-11T06:18:38;1.85;;;1.45;;
70780;SDS011;59514;48.810;2.134;2022-07-11T06:21:04;3.10;;;1.40;;
70780;SDS011;59514;48.810;2.134;2022-07-11T06:23:30;3.08;;;1.50;;
70780;SDS011;59514;48.810;2.134;2022-07-11T06:25:57;2.92;;;1.42;;
70780;SDS011;59514;48.810;2.134;2022-07-11T06:28:23;4.05;;;2.33;;
70780;SDS011;59514;48.810;2.134;2022-07-11T06:30:48;4.55;;;2.53;;
70780;SDS011;59514;48.810;2.134;2022-07-11T06:33:17;4.63;;;3.28;;
70780;SDS011;59514;48.810;2.134;2022-07-11T06:35:43;5.78;;;4.25;;
70780;SDS011;59514;48.810;2.134;2022-07-11T06:38:09;6.07;;;5.15;;
70780;SDS011;59514;48.810;2.134;2022-07-11T06:40:35;4.70;;;4.25;;
70780;SDS011;59514;48.810;2.134;2022-07-11T06:43:01;5.63;;;4.03;;
70780;SDS011;59514;48.810;2.134;2022-07-11T06:45:26;7.22;;;4.05;;
70780;SDS011;59514;48.810;2.134;2022-07-11T06:47:52;3.75;;;3.00;;
70780;SDS011;59514;48.810;2.134;2022-07-11T06:50:17;3.70;;;2.80;;
70780;SDS011;59514;48.810;2.134;2022-07-11T06:52:43;2.83;;;1.80;;
70780;SDS011;59514;48.810;2.134;2022-07-11T06:55:08;3.97;;;1.70;;
70780;SDS011;59514;48.810;2.134;2022-07-11T06:57:34;3.10;;;1.38;;
70780;SDS011;59514;48.810;2.134;2022-07-11T06:59:59;3.65;;;1.50;;
70780;SDS011;59514;48.810;2.134;2022-07-11T07:02:24;1.23;;;1.10;;
70780;SDS011;59514;48.810;2.134;2022-07-11T07:04:55;2.92;;;1.60;;
70780;SDS011;59514;48.810;2.134;2022-07-11T07:07:20;3.03;;;1.20;;
70780;SDS011;59514;48.810;2.134;2022-07-11T07:09:46;2.97;;;1.30;;
70780;SDS011;59514;48.810;2.134;2022-07-11T07:12:11;2.28;;;1.23;;
70780;SDS011;59514;48.810;2.134;2022-07-11T07:14:38;4.68;;;1.20;;
70780;SDS011;59514;48.810;2.134;2022-07-11T07:17:03;2.80;;;1.30;;
70780;SDS011;59514;48.810;2.134;2022-07-11T07:19:28;2.78;;;0.90;;
70780;SDS011;59514;48.810;2.134;2022-07-11T07:21:54;2.33;;;1.00;;
70780;SDS011;59514;48.810;2.134;2022-07-11T07:24:19;3.78;;;1.00;;
70780;SDS011;59514;48.810;2.134;2022-07-11T07:26:44;2.08;;;0.82;;
70780;SDS011;59514;48.810;2.134;2022-07-11T07:29:10;3.38;;;0.93;;
70780;SDS011;59514;48.810;2.134;2022-07-11T07:31:35;3.42;;;1.00;;
70780;SDS011;59514;48.810;2.134;2022-07-11T07:34:01;4.65;;;0.90;;
70780;SDS011;59514;48.810;2.134;2022-07-11T07:36:26;2.90;;;1.02;;
70780;SDS011;59514;48.810;2.134;2022-07-11T07:38:51;3.60;;;1.17;;
70780;SDS011;59514;48.810;2.134;2022-07-11T07:41:17;4.35;;;1.20;;
70780;SDS011;59514;48.810;2.134;2022-07-11T07:43:42;1.83;;;0.88;;
70780;SDS011;59514;48.810;2.134;2022-07-11T07:46:07;2.75;;;0.80;;
70780;SDS011;59514;48.810;2.134;2022-07-11T07:48:34;1.60;;;0.90;;
70780;SDS011;59514;48.810;2.134;2022-07-11T07:51:00;3.28;;;1.48;;
70780;SDS011;59514;48.810;2.134;2022-07-11T07:53:25;4.28;;;1.42;;
70780;SDS011;59514;48.810;2.134;2022-07-11T07:55:51;5.75;;;1.23;;
70780;SDS011;59514;48.810;2.134;2022-07-11T07:58:16;1.25;;;0.93;;
70780;SDS011;59514;48.810;2.134;2022-07-11T08:00:42;1.73;;;1.10;;
70780;SDS011;59514;48.810;2.134;2022-07-11T08:03:26;3.40;;;0.90;;
70780;SDS011;59514;48.810;2.134;2022-07-11T08:05:51;2.38;;;1.13;;
70780;SDS011;59514;48.810;2.134;2022-07-11T08:08:17;2.65;;;1.20;;
70780;SDS011;59514;48.810;2.134;2022-07-11T08:10:42;3.15;;;1.50;;
70780;SDS011;59514;48.810;2.134;2022-07-11T08:13:07;2.38;;;0.80;;
70780;SDS011;59514;48.810;2.134;2022-07-11T08:15:33;2.13;;;1.13;;
70780;SDS011;59514;48.810;2.134;2022-07-11T08:17:58;2.95;;;1.15;;
70780;SDS011;59514;48.810;2.134;2022-07-11T08:20:24;3.08;;;0.82;;
70780;SDS011;59514;48.810;2.134;2022-07-11T08:22:49;2.50;;;1.10;;
70780;SDS011;59514;48.810;2.134;2022-07-11T08:25:14;2.67;;;1.20;;
70780;SDS011;59514;48.810;2.134;2022-07-11T08:27:40;2.53;;;1.20;;
70780;SDS011;59514;48.810;2.134;2022-07-11T08:30:06;5.30;;;1.10;;
70780;SDS011;59514;48.810;2.134;2022-07-11T08:32:32;3.30;;;0.93;;
70780;SDS011;59514;48.810;2.134;2022-07-11T08:35:00;1.58;;;0.98;;
70780;SDS011;59514;48.810;2.134;2022-07-11T08:37:26;3.17;;;1.13;;
70780;SDS011;59514;48.810;2.134;2022-07-11T08:39:51;1.35;;;0.70;;
70780;SDS011;59514;48.810;2.134;2022-07-11T08:42:19;3.47;;;1.30;;
70780;SDS011;59514;48.810;2.134;2022-07-11T08:44:48;1.67;;;1.10;;
70780;SDS011;59514;48.810;2.134;2022-07-11T08:47:17;1.30;;;0.88;;
70780;SDS011;59514;48.810;2.134;2022-07-11T08:49:43;2.60;;;0.82;;
70780;SDS011;59514;48.810;2.134;2022-07-11T08:52:10;1.98;;;1.15;;
70780;SDS011;59514;48.810;2.134;2022-07-11T08:54:37;4.13;;;0.90;;
70780;SDS011;59514;48.810;2.134;2022-07-11T08:57:05;3.10;;;1.02;;
70780;SDS011;59514;48.810;2.134;2022-07-11T08:59:31;1.77;;;0.90;;
70780;SDS011;59514;48.810;2.134;2022-07-11T09:02:01;2.05;;;0.93;;
70780;SDS011;59514;48.810;2.134;2022-07-11T09:04:28;4.38;;;1.33;;
70780;SDS011;59514;48.810;2.134;2022-07-11T09:06:55;5.43;;;1.50;;
70780;SDS011;59514;48.810;2.134;2022-07-11T09:09:21;2.88;;;1.73;;
70780;SDS011;59514;48.810;2.134;2022-07-11T09:11:50;1.88;;;1.05;;
70780;SDS011;59514;48.810;2.134;2022-07-11T09:16:56;5.07;;;1.77;;
70780;SDS011;59514;48.810;2.134;2022-07-11T09:19:29;2.92;;;1.00;;
70780;SDS011;59514;48.810;2.134;2022-07-11T09:22:05;0.98;;;0.80;;
70780;SDS011;59514;48.810;2.134;2022-07-11T09:27:56;2.50;;;2.10;;
70780;SDS011;59514;48.810;2.134;2022-07-11T09:30:33;2.45;;;1.10;;
70780;SDS011;59514;48.810;2.134;2022-07-11T09:33:01;5.95;;;4.38;;
70780;SDS011;59514;48.810;2.134;2022-07-11T09:35:32;3.47;;;2.67;;
70780;SDS011;59514;48.810;2.134;2022-07-11T09:38:07;3.67;;;1.48;;
70780;SDS011;59514;48.810;2.134;2022-07-11T09:40:34;2.53;;;1.13;;
70780;SDS011;59514;48.810;2.134;2022-07-11T09:43:01;2.55;;;1.05;;
70780;SDS011;59514;48.810;2.134;2022-07-11T09:45:30;1.45;;;1.20;;
70780;SDS011;59514;48.810;2.134;2022-07-11T09:47:58;2.35;;;1.23;;
70780;SDS011;59514;48.810;2.134;2022-07-11T09:50:26;2.45;;;1.20;;
70780;SDS011;59514;48.810;2.134;2022-07-11T09:53:09;5.05;;;1.02;;
70780;SDS011;59514;48.810;2.134;2022-07-11T09:58:08;3.80;;;1.20;;
70780;SDS011;59514;48.810;2.134;2022-07-11T10:00:35;3.83;;;1.38;;
70780;SDS011;59514;48.810;2.134;2022-07-11T10:03:02;2.13;;;1.92;;
70780;SDS011;59514;48.810;2.134;2022-07-11T10:05:28;6.20;;;2.75;;
70780;SDS011;59514;48.810;2.134;2022-07-11T10:07:54;4.35;;;1.85;;
70780;SDS011;59514;48.810;2.134;2022-07-11T10:10:21;2.45;;;1.30;;
70780;SDS011;59514;48.810;2.134;2022-07-11T10:12:47;1.52;;;1.00;;
70780;SDS011;59514;48.810;2.134;2022-07-11T10:15:14;1.85;;;1.17;;
70780;SDS011;59514;48.810;2.134;2022-07-11T10:25:35;3.07;;;1.10;;
70780;SDS011;59514;48.810;2.134;2022-07-11T10:28:24;4.05;;;1.42;;
70780;SDS011;59514;48.810;2.134;2022-07-11T10:30:55;3.03;;;1.48;;
70780;SDS011;59514;48.810;2.134;2022-07-11T10:33:27;3.78;;;1.55;;
70780;SDS011;59514;48.810;2.134;2022-07-11T10:35:54;3.58;;;1.60;;
70780;SDS011;59514;48.810;2.134;2022-07-11T10:38:20;3.72;;;1.60;;
70780;SDS011;59514;48.810;2.134;2022-07-11T10:40:47;4.05;;;1.30;;
70780;SDS011;59514;48.810;2.134;2022-07-11T10:43:14;2.08;;;1.00;;
70780;SDS011;59514;48.810;2.134;2022-07-11T10:45:56;1.95;;;1.00;;
70780;SDS011;59514;48.810;2.134;2022-07-11T10:48:22;2.65;;;1.80;;
70780;SDS011;59514;48.810;2.134;2022-07-11T10:50:53;2.33;;;1.05;;
70780;SDS011;59514;48.810;2.134;2022-07-11T10:53:26;1.92;;;1.17;;
70780;SDS011;59514;48.810;2.134;2022-07-11T10:56:14;2.28;;;1.15;;
70780;SDS011;59514;48.810;2.134;2022-07-11T10:58:45;1.38;;;0.80;;
70780;SDS011;59514;48.810;2.134;2022-07-11T11:01:21;1.65;;;0.70;;
70780;SDS011;59514;48.810;2.134;2022-07-11T11:03:52;3.40;;;0.80;;
70780;SDS011;59514;48.810;2.134;2022-07-11T11:06:57;1.65;;;0.70;;
70780;SDS011;59514;48.810;2.134;2022-07-11T11:09:38;2.28;;;0.90;;
70780;SDS011;59514;48.810;2.134;2022-07-11T11:12:04;1.38;;;0.70;;
70780;SDS011;59514;48.810;2.134;2022-07-11T11:14:29;8.43;;;1.17;;
70780;SDS011;59514;48.810;2.134;2022-07-11T11:17:33;3.63;;;0.85;;
70780;SDS011;59514;48.810;2.134;2022-07-11T11:19:59;3.13;;;0.65;;
70780;SDS011;59514;48.810;2.134;2022-07-11T11:22:24;5.60;;;1.00;;
70780;SDS011;59514;48.810;2.134;2022-07-11T11:24:51;1.48;;;0.60;;
70780;SDS011;59514;48.810;2.134;2022-07-11T11:27:22;2.00;;;0.70;;
70780;SDS011;59514;48.810;2.134;2022-07-11T11:29:49;2.47;;;0.60;;
70780;SDS011;59514;48.810;2.134;2022-07-11T11:32:19;3.30;;;2.15;;
70780;SDS011;59514;48.810;2.134;2022-07-11T11:34:45;2.05;;;1.10;;
70780;SDS011;59514;48.810;2.134;2022-07-11T11:37:10;1.58;;;0.80;;
70780;SDS011;59514;48.810;2.134;2022-07-11T11:39:37;1.83;;;0.63;;
70780;SDS011;59514;48.810;2.134;2022-07-11T11:44:32;2.78;;;0.90;;
70780;SDS011;59514;48.810;2.134;2022-07-11T11:46:58;1.95;;;1.75;;
70780;SDS011;59514;48.810;2.134;2022-07-11T11:49:24;1.60;;;1.50;;
70780;SDS011;59514;48.810;2.134;2022-07-11T11:51:49;1.88;;;0.80;;
70780;SDS011;59514;48.810;2.134;2022-07-11T11:54:22;3.42;;;0.90;;
70780;SDS011;59514;48.810;2.134;2022-07-11T11:56:48;1.63;;;0.60;;
70780;SDS011;59514;48.810;2.134;2022-07-11T11:59:14;1.50;;;0.75;;
70780;SDS011;59514;48.810;2.134;2022-07-11T12:01:41;2.20;;;0.82;;
70780;SDS011;59514;48.810;2.134;2022-07-11T12:04:09;2.13;;;0.82;;
70780;SDS011;59514;48.810;2.134;2022-07-11T12:06:37;1.77;;;0.75;;
70780;SDS011;59514;48.810;2.134;2022-07-11T12:09:12;1.92;;;0.70;;
70780;SDS011;59514;48.810;2.134;2022-07-11T12:11:42;2.70;;;0.85;;
70780;SDS011;59514;48.810;2.134;2022-07-11T12:14:09;0.65;;;0.50;;
70780;SDS011;59514;48.810;2.134;2022-07-11T12:16:40;3.63;;;1.13;;
70780;SDS011;59514;48.810;2.134;2022-07-11T12:19:09;2.05;;;0.80;;
70780;SDS011;59514;48.810;2.134;2022-07-11T12:21:37;1.77;;;1.15;;
70780;SDS011;59514;48.810;2.134;2022-07-11T12:24:11;2.70;;;2.08;;
70780;SDS011;59514;48.810;2.134;2022-07-11T12:26:38;1.88;;;1.23;;
70780;SDS011;59514;48.810;2.134;2022-07-11T12:29:06;1.80;;;0.95;;
70780;SDS011;59514;48.810;2.134;2022-07-11T12:31:52;1.63;;;0.90;;
70780;SDS011;59514;48.810;2.134;2022-07-11T12:34:23;3.15;;;1.40;;
70780;SDS011;59514;48.810;2.134;2022-07-11T12:36:50;5.45;;;1.65;;
70780;SDS011;59514;48.810;2.134;2022-07-11T12:39:26;1.40;;;0.82;;
70780;SDS011;59514;48.810;2.134;2022-07-11T12:41:55;2.63;;;1.00;;
70780;SDS011;59514;48.810;2.134;2022-07-11T12:44:22;2.47;;;1.25;;
70780;SDS011;59514;48.810;2.134;2022-07-11T12:47:13;3.15;;;0.70;;
70780;SDS011;59514;48.810;2.134;2022-07-11T12:49:41;1.50;;;0.90;;
70780;SDS011;59514;48.810;2.134;2022-07-11T12:52:13;12.18;;;2.17;;
70780;SDS011;59514;48.810;2.134;2022-07-11T12:54:39;9.38;;;2.20;;
70780;SDS011;59514;48.810;2.134;2022-07-11T12:57:06;5.30;;;1.90;;
70780;SDS011;59514;48.810;2.134;2022-07-11T12:59:32;1.33;;;0.80;;
70780;SDS011;59514;48.810;2.134;2022-07-11T13:01:59;2.78;;;0.90;;
70780;SDS011;59514;48.810;2.134;2022-07-11T13:04:38;3.47;;;1.08;;
70780;SDS011;59514;48.810;2.134;2022-07-11T13:10:06;4.28;;;0.98;;
70780;SDS011;59514;48.810;2.134;2022-07-11T13:12:32;2.15;;;0.85;;
70780;SDS011;59514;48.810;2.134;2022-07-11T13:15:01;1.67;;;0.70;;
70780;SDS011;59514;48.810;2.134;2022-07-11T13:20:06;1.92;;;0.90;;
70780;SDS011;59514;48.810;2.134;2022-07-11T13:22:33;1.83;;;0.95;;
70780;SDS011;59514;48.810;2.134;2022-07-11T13:24:59;3.33;;;0.80;;
70780;SDS011;59514;48.810;2.134;2022-07-11T13:27:24;1.45;;;0.77;;
70780;SDS011;59514;48.810;2.134;2022-07-11T13:29:50;1.58;;;0.95;;
70780;SDS011;59514;48.810;2.134;2022-07-11T13:32:15;2.50;;;1.00;;
70780;SDS011;59514;48.810;2.134;2022-07-11T13:34:40;1.83;;;0.77;;
70780;SDS011;59514;48.810;2.134;2022-07-11T13:37:05;4.23;;;1.10;;
70780;SDS011;59514;48.810;2.134;2022-07-11T13:39:31;2.97;;;1.13;;
70780;SDS011;59514;48.810;2.134;2022-07-11T13:41:56;1.20;;;0.80;;
70780;SDS011;59514;48.810;2.134;2022-07-11T13:44:21;2.47;;;0.88;;
70780;SDS011;59514;48.810;2.134;2022-07-11T13:46:47;1.55;;;0.90;;
70780;SDS011;59514;48.810;2.134;2022-07-11T13:49:12;2.17;;;0.80;;
70780;SDS011;59514;48.810;2.134;2022-07-11T13:51:39;2.30;;;1.02;;
70780;SDS011;59514;48.810;2.134;2022-07-11T13:54:04;2.38;;;1.15;;
70780;SDS011;59514;48.810;2.134;2022-07-11T13:56:30;1.30;;;1.20;;
70780;SDS011;59514;48.810;2.134;2022-07-11T13:58:55;3.03;;;0.98;;
70780;SDS011;59514;48.810;2.134;2022-07-11T14:01:21;5.70;;;1.20;;
70780;SDS011;59514;48.810;2.134;2022-07-11T14:03:46;6.60;;;1.75;;
70780;SDS011;59514;48.810;2.134;2022-07-11T14:06:12;8.10;;;1.30;;
70780;SDS011;59514;48.810;2.134;2022-07-11T14:08:37;4.80;;;1.10;;
70780;SDS011;59514;48.810;2.134;2022-07-11T14:11:02;4.00;;;0.80;;
70780;SDS011;59514;48.810;2.134;2022-07-11T14:13:28;3.83;;;1.40;;
70780;SDS011;59514;48.810;2.134;2022-07-11T14:15:53;4.35;;;1.10;;
70780;SDS011;59514;48.810;2.134;2022-07-11T14:18:19;6.75;;;1.23;;
70780;SDS011;59514;48.810;2.134;2022-07-11T14:20:44;3.50;;;1.10;;
70780;SDS011;59514;48.810;2.134;2022-07-11T14:23:10;2.85;;;1.10;;
70780;SDS011;59514;48.810;2.134;2022-07-11T14:25:35;2.05;;;0.75;;
70780;SDS011;59514;48.810;2.134;2022-07-11T14:28:00;2.20;;;1.05;;
70780;SDS011;59514;48.810;2.134;2022-07-11T14:30:26;5.10;;;1.02;;
70780;SDS011;59514;48.810;2.134;2022-07-11T14:32:54;3.72;;;0.98;;
70780;SDS011;59514;48.810;2.134;2022-07-11T14:35:19;2.65;;;0.73;;
70780;SDS011;59514;48.810;2.134;2022-07-11T14:37:45;4.13;;;1.00;;
70780;SDS011;59514;48.810;2.134;2022-07-11T14:40:10;2.25;;;0.80;;
70780;SDS011;59514;48.810;2.134;2022-07-11T14:42:36;2.85;;;0.70;;
70780;SDS011;59514;48.810;2.134;2022-07-11T14:45:01;3.78;;;1.23;;
70780;SDS011;59514;48.810;2.134;2022-07-11T14:47:27;2.30;;;0.73;;
70780;SDS011;59514;48.810;2.134;2022-07-11T14:49:52;3.90;;;1.07;;
70780;SDS011;59514;48.810;2.134;2022-07-11T14:52:17;5.13;;;1.33;;
70780;SDS011;59514;48.810;2.134;2022-07-11T14:54:44;3.33;;;1.05;;
70780;SDS011;59514;48.810;2.134;2022-07-11T14:57:09;1.67;;;0.80;;
70780;SDS011;59514;48.810;2.134;2022-07-11T14:59:35;4.55;;;1.10;;
70780;SDS011;59514;48.810;2.134;2022-07-11T15:02:01;2.10;;;1.00;;
70780;SDS011;59514;48.810;2.134;2022-07-11T15:04:26;2.08;;;1.00;;
70780;SDS011;59514;48.810;2.134;2022-07-11T15:06:52;1.97;;;0.97;;
70780;SDS011;59514;48.810;2.134;2022-07-11T15:09:36;2.90;;;0.82;;
70780;SDS011;59514;48.810;2.134;2022-07-11T15:12:20;12.70;;;1.70;;